sensor_id;sensor_type;location;lat;lon;timestamp;P1;durP1;ratioP1;P2;durP2;ratioP2
48743;SDS011;34538;48.836;9.174;2023-04-24T00:01:20;0.65;;;0.50;;
48743;SDS011;34538;48.836;9.174;2023-04-24T00:03:47;1.25;;;0.47;;
48743;SDS011;34538;48.836;9.174;2023-04-24T00:06:15;0.50;;;0.50;;
48743;SDS011;34538;48.836;9.174;2023-04-24T00:08:43;1.15;;;0.93;;
48743;SDS011;34538;48.836;9.174;2023-04-24T00:11:09;1.63;;;1.00;;
48743;SDS011;34538;48.836;9.174;2023-04-24T00:13:37;1.98;;;0.80;;
48743;SDS011;34538;48.836;9.174;2023-04-24T00:16:04;3.30;;;0.50;;
48743;SDS011;34538;48.836;9.174;2023-04-24T00:18:31;1.10;;;0.40;;
48743;SDS011;34538;48.836;9.174;2023-04-24T00:20:58;1.40;;;0.50;;
48743;SDS011;34538;48.836;9.174;2023-04-24T00:23:26;2.60;;;0.43;;
48743;SDS011;34538;48.836;9.174;2023-04-24T00:25:53;0.30;;;0.30;;
48743;SDS011;34538;48.836;9.174;2023-04-24T00:28:20;0.98;;;0.65;;
48743;SDS011;34538;48.836;9.174;2023-04-24T00:30:46;1.17;;;0.52;;
48743;SDS011;34538;48.836;9.174;2023-04-24T00:33:13;0.55;;;0.40;;
48743;SDS011;34538;48.836;9.174;2023-04-24T00:35:40;2.67;;;0.70;;
48743;SDS011;34538;48.836;9.174;2023-04-24T00:38:07;0.55;;;0.50;;
48743;SDS011;34538;48.836;9.174;2023-04-24T00:40:35;0.30;;;0.20;;
48743;SDS011;34538;48.836;9.174;2023-04-24T00:43:02;1.48;;;0.70;;
48743;SDS011;34538;48.836;9.174;2023-04-24T00:45:29;1.17;;;0.40;;
48743;SDS011;34538;48.836;9.174;2023-04-24T00:47:57;0.38;;;0.20;;
48743;SDS011;34538;48.836;9.174;2023-04-24T00:50:24;0.90;;;0.30;;
48743;SDS011;34538;48.836;9.174;2023-04-24T00:52:51;0.63;;;0.30;;
48743;SDS011;34538;48.836;9.174;2023-04-24T00:55:18;0.32;;;0.32;;
48743;SDS011;34538;48.836;9.174;2023-04-24T00:57:47;1.02;;;0.50;;
48743;SDS011;34538;48.836;9.174;2023-04-24T01:00:15;2.92;;;0.50;;
48743;SDS011;34538;48.836;9.174;2023-04-24T01:02:42;2.20;;;0.57;;
48743;SDS011;34538;48.836;9.174;2023-04-24T01:05:10;0.57;;;0.47;;
48743;SDS011;34538;48.836;9.174;2023-04-24T01:07:38;1.17;;;0.50;;
48743;SDS011;34538;48.836;9.174;2023-04-24T01:10:09;1.05;;;0.30;;
48743;SDS011;34538;48.836;9.174;2023-04-24T01:12:37;0.30;;;0.30;;
48743;SDS011;34538;48.836;9.174;2023-04-24T01:15:06;0.95;;;0.68;;
48743;SDS011;34538;48.836;9.174;2023-04-24T01:17:34;2.05;;;0.40;;
48743;SDS011;34538;48.836;9.174;2023-04-24T01:20:01;0.65;;;0.40;;
48743;SDS011;34538;48.836;9.174;2023-04-24T01:22:32;1.25;;;0.45;;
48743;SDS011;34538;48.836;9.174;2023-04-24T01:24:59;0.35;;;0.35;;
48743;SDS011;34538;48.836;9.174;2023-04-24T01:27:29;1.50;;;0.50;;
48743;SDS011;34538;48.836;9.174;2023-04-24T01:29:56;1.30;;;0.43;;
48743;SDS011;34538;48.836;9.174;2023-04-24T01:32:23;2.35;;;0.50;;
48743;SDS011;34538;48.836;9.174;2023-04-24T01:34:50;2.45;;;0.60;;
48743;SDS011;34538;48.836;9.174;2023-04-24T01:37:17;1.23;;;0.65;;
48743;SDS011;34538;48.836;9.174;2023-04-24T01:39:46;0.60;;;0.30;;
48743;SDS011;34538;48.836;9.174;2023-04-24T01:42:12;1.83;;;0.50;;
48743;SDS011;34538;48.836;9.174;2023-04-24T01:44:40;3.05;;;0.45;;
48743;SDS011;34538;48.836;9.174;2023-04-24T01:47:07;0.95;;;0.50;;
48743;SDS011;34538;48.836;9.174;2023-04-24T01:49:34;1.58;;;0.60;;
48743;SDS011;34538;48.836;9.174;2023-04-24T01:52:01;0.98;;;0.45;;
48743;SDS011;34538;48.836;9.174;2023-04-24T01:54:29;2.10;;;0.80;;
48743;SDS011;34538;48.836;9.174;2023-04-24T01:56:58;1.08;;;0.70;;
48743;SDS011;34538;48.836;9.174;2023-04-24T01:59:26;3.85;;;0.85;;
48743;SDS011;34538;48.836;9.174;2023-04-24T02:01:53;1.08;;;0.60;;
48743;SDS011;34538;48.836;9.174;2023-04-24T02:04:20;1.52;;;0.60;;
48743;SDS011;34538;48.836;9.174;2023-04-24T02:06:47;1.38;;;0.55;;
48743;SDS011;34538;48.836;9.174;2023-04-24T02:09:14;2.00;;;0.50;;
48743;SDS011;34538;48.836;9.174;2023-04-24T02:11:41;0.98;;;0.45;;
48743;SDS011;34538;48.836;9.174;2023-04-24T02:14:09;1.13;;;0.50;;
48743;SDS011;34538;48.836;9.174;2023-04-24T02:16:38;1.00;;;0.47;;
48743;SDS011;34538;48.836;9.174;2023-04-24T02:19:05;1.38;;;0.65;;
48743;SDS011;34538;48.836;9.174;2023-04-24T02:21:32;1.42;;;0.50;;
48743;SDS011;34538;48.836;9.174;2023-04-24T02:24:00;1.23;;;0.55;;
48743;SDS011;34538;48.836;9.174;2023-04-24T02:26:27;1.17;;;0.43;;
48743;SDS011;34538;48.836;9.174;2023-04-24T02:28:56;0.93;;;0.50;;
48743;SDS011;34538;48.836;9.174;2023-04-24T02:31:24;1.90;;;0.50;;
48743;SDS011;34538;48.836;9.174;2023-04-24T02:33:51;1.65;;;0.50;;
48743;SDS011;34538;48.836;9.174;2023-04-24T02:36:18;0.68;;;0.40;;
48743;SDS011;34538;48.836;9.174;2023-04-24T02:38:45;0.32;;;0.32;;
48743;SDS011;34538;48.836;9.174;2023-04-24T02:41:12;0.55;;;0.40;;
48743;SDS011;34538;48.836;9.174;2023-04-24T02:43:38;1.35;;;0.43;;
48743;SDS011;34538;48.836;9.174;2023-04-24T02:46:05;1.27;;;0.50;;
48743;SDS011;34538;48.836;9.174;2023-04-24T02:48:34;1.48;;;0.50;;
48743;SDS011;34538;48.836;9.174;2023-04-24T02:51:01;0.98;;;0.50;;
48743;SDS011;34538;48.836;9.174;2023-04-24T02:53:28;1.25;;;0.60;;
48743;SDS011;34538;48.836;9.174;2023-04-24T02:55:56;1.17;;;0.55;;
48743;SDS011;34538;48.836;9.174;2023-04-24T02:58:22;2.92;;;0.60;;
48743;SDS011;34538;48.836;9.174;2023-04-24T03:00:52;0.47;;;0.47;;
48743;SDS011;34538;48.836;9.174;2023-04-24T03:03:20;2.47;;;0.60;;
48743;SDS011;34538;48.836;9.174;2023-04-24T03:05:48;0.73;;;0.50;;
48743;SDS011;34538;48.836;9.174;2023-04-24T03:08:15;1.50;;;0.40;;
48743;SDS011;34538;48.836;9.174;2023-04-24T03:10:42;1.58;;;0.60;;
48743;SDS011;34538;48.836;9.174;2023-04-24T03:13:09;2.38;;;0.82;;
48743;SDS011;34538;48.836;9.174;2023-04-24T03:15:37;0.70;;;0.40;;
48743;SDS011;34538;48.836;9.174;2023-04-24T03:18:04;1.17;;;0.57;;
48743;SDS011;34538;48.836;9.174;2023-04-24T03:20:31;2.55;;;0.95;;
48743;SDS011;34538;48.836;9.174;2023-04-24T03:22:59;1.98;;;0.68;;
48743;SDS011;34538;48.836;9.174;2023-04-24T03:25:26;4.25;;;0.88;;
48743;SDS011;34538;48.836;9.174;2023-04-24T03:27:54;0.90;;;0.70;;
48743;SDS011;34538;48.836;9.174;2023-04-24T03:30:40;1.08;;;0.80;;
48743;SDS011;34538;48.836;9.174;2023-04-24T03:33:07;2.10;;;0.60;;
48743;SDS011;34538;48.836;9.174;2023-04-24T03:35:39;1.45;;;0.80;;
48743;SDS011;34538;48.836;9.174;2023-04-24T03:38:10;2.58;;;0.90;;
48743;SDS011;34538;48.836;9.174;2023-04-24T03:40:37;3.55;;;1.25;;
48743;SDS011;34538;48.836;9.174;2023-04-24T03:43:13;4.30;;;1.55;;
48743;SDS011;34538;48.836;9.174;2023-04-24T03:45:40;4.20;;;1.45;;
48743;SDS011;34538;48.836;9.174;2023-04-24T03:48:08;3.30;;;1.50;;
48743;SDS011;34538;48.836;9.174;2023-04-24T03:50:36;1.05;;;0.73;;
48743;SDS011;34538;48.836;9.174;2023-04-24T03:53:04;3.22;;;1.10;;
48743;SDS011;34538;48.836;9.174;2023-04-24T03:55:39;1.98;;;0.75;;
48743;SDS011;34538;48.836;9.174;2023-04-24T03:58:06;1.27;;;0.80;;
48743;SDS011;34538;48.836;9.174;2023-04-24T04:00:33;1.60;;;0.55;;
48743;SDS011;34538;48.836;9.174;2023-04-24T04:03:32;1.40;;;0.60;;
48743;SDS011;34538;48.836;9.174;2023-04-24T04:05:59;1.02;;;0.60;;
48743;SDS011;34538;48.836;9.174;2023-04-24T04:08:26;1.95;;;0.77;;
48743;SDS011;34538;48.836;9.174;2023-04-24T04:10:54;2.47;;;0.70;;
48743;SDS011;34538;48.836;9.174;2023-04-24T04:13:22;2.00;;;1.00;;
48743;SDS011;34538;48.836;9.174;2023-04-24T04:15:49;3.35;;;1.35;;
48743;SDS011;34538;48.836;9.174;2023-04-24T04:18:16;1.83;;;0.75;;
48743;SDS011;34538;48.836;9.174;2023-04-24T04:20:43;2.63;;;0.80;;
48743;SDS011;34538;48.836;9.174;2023-04-24T04:23:12;1.33;;;0.60;;
48743;SDS011;34538;48.836;9.174;2023-04-24T04:25:49;1.35;;;0.70;;
48743;SDS011;34538;48.836;9.174;2023-04-24T04:28:20;1.27;;;0.60;;
48743;SDS011;34538;48.836;9.174;2023-04-24T04:30:48;0.90;;;0.70;;
48743;SDS011;34538;48.836;9.174;2023-04-24T04:33:19;2.92;;;0.60;;
48743;SDS011;34538;48.836;9.174;2023-04-24T04:35:46;1.20;;;0.80;;
48743;SDS011;34538;48.836;9.174;2023-04-24T04:38:14;1.48;;;0.85;;
48743;SDS011;34538;48.836;9.174;2023-04-24T04:40:50;4.75;;;0.80;;
48743;SDS011;34538;48.836;9.174;2023-04-24T04:43:21;1.17;;;0.90;;
48743;SDS011;34538;48.836;9.174;2023-04-24T04:45:51;2.85;;;0.77;;
48743;SDS011;34538;48.836;9.174;2023-04-24T04:48:42;1.08;;;0.88;;
48743;SDS011;34538;48.836;9.174;2023-04-24T04:51:09;1.90;;;1.10;;
48743;SDS011;34538;48.836;9.174;2023-04-24T04:53:36;3.53;;;1.17;;
48743;SDS011;34538;48.836;9.174;2023-04-24T04:56:03;1.85;;;1.02;;
48743;SDS011;34538;48.836;9.174;2023-04-24T04:58:45;1.60;;;0.90;;
48743;SDS011;34538;48.836;9.174;2023-04-24T05:01:14;1.70;;;1.10;;
48743;SDS011;34538;48.836;9.174;2023-04-24T05:03:45;1.50;;;1.00;;
48743;SDS011;34538;48.836;9.174;2023-04-24T05:06:14;3.53;;;1.20;;
48743;SDS011;34538;48.836;9.174;2023-04-24T05:08:42;1.67;;;1.00;;
48743;SDS011;34538;48.836;9.174;2023-04-24T05:11:19;2.25;;;1.30;;
48743;SDS011;34538;48.836;9.174;2023-04-24T05:13:47;4.32;;;1.15;;
48743;SDS011;34538;48.836;9.174;2023-04-24T05:16:18;2.28;;;1.15;;
48743;SDS011;34538;48.836;9.174;2023-04-24T05:18:47;2.10;;;1.00;;
48743;SDS011;34538;48.836;9.174;2023-04-24T05:21:17;2.53;;;1.00;;
48743;SDS011;34538;48.836;9.174;2023-04-24T05:23:48;1.98;;;0.98;;
48743;SDS011;34538;48.836;9.174;2023-04-24T05:26:23;1.27;;;1.00;;
48743;SDS011;34538;48.836;9.174;2023-04-24T05:28:52;1.52;;;1.00;;
48743;SDS011;34538;48.836;9.174;2023-04-24T05:31:19;1.48;;;1.08;;
48743;SDS011;34538;48.836;9.174;2023-04-24T05:33:46;2.13;;;1.27;;
48743;SDS011;34538;48.836;9.174;2023-04-24T05:36:13;2.42;;;1.13;;
48743;SDS011;34538;48.836;9.174;2023-04-24T05:38:40;1.38;;;0.77;;
48743;SDS011;34538;48.836;9.174;2023-04-24T05:41:07;2.03;;;1.13;;
48743;SDS011;34538;48.836;9.174;2023-04-24T05:43:34;0.77;;;0.77;;
48743;SDS011;34538;48.836;9.174;2023-04-24T05:46:03;1.70;;;0.85;;
48743;SDS011;34538;48.836;9.174;2023-04-24T05:48:30;1.30;;;1.00;;
48743;SDS011;34538;48.836;9.174;2023-04-24T05:50:59;2.22;;;0.98;;
48743;SDS011;34538;48.836;9.174;2023-04-24T05:53:26;1.33;;;1.00;;
48743;SDS011;34538;48.836;9.174;2023-04-24T05:55:53;1.85;;;0.90;;
48743;SDS011;34538;48.836;9.174;2023-04-24T05:58:20;1.98;;;1.13;;
48743;SDS011;34538;48.836;9.174;2023-04-24T06:00:48;1.58;;;1.02;;
48743;SDS011;34538;48.836;9.174;2023-04-24T06:03:17;1.95;;;1.40;;
48743;SDS011;34538;48.836;9.174;2023-04-24T06:05:46;3.25;;;1.20;;
48743;SDS011;34538;48.836;9.174;2023-04-24T06:08:15;1.65;;;1.25;;
48743;SDS011;34538;48.836;9.174;2023-04-24T06:10:44;1.90;;;1.13;;
48743;SDS011;34538;48.836;9.174;2023-04-24T06:13:11;3.78;;;1.20;;
48743;SDS011;34538;48.836;9.174;2023-04-24T06:15:44;2.03;;;1.15;;
48743;SDS011;34538;48.836;9.174;2023-04-24T06:18:26;1.27;;;1.02;;
48743;SDS011;34538;48.836;9.174;2023-04-24T06:20:53;1.35;;;1.00;;
48743;SDS011;34538;48.836;9.174;2023-04-24T06:23:22;2.72;;;1.25;;
48743;SDS011;34538;48.836;9.174;2023-04-24T06:25:49;3.00;;;0.95;;
48743;SDS011;34538;48.836;9.174;2023-04-24T06:28:16;2.75;;;1.02;;
48743;SDS011;34538;48.836;9.174;2023-04-24T06:30:43;1.38;;;1.00;;
48743;SDS011;34538;48.836;9.174;2023-04-24T06:33:10;1.23;;;0.95;;
48743;SDS011;34538;48.836;9.174;2023-04-24T06:35:39;3.03;;;1.27;;
48743;SDS011;34538;48.836;9.174;2023-04-24T06:38:06;4.35;;;1.30;;
48743;SDS011;34538;48.836;9.174;2023-04-24T06:40:32;2.20;;;1.15;;
48743;SDS011;34538;48.836;9.174;2023-04-24T06:42:59;1.85;;;1.17;;
48743;SDS011;34538;48.836;9.174;2023-04-24T06:45:28;1.80;;;1.05;;
48743;SDS011;34538;48.836;9.174;2023-04-24T06:47:55;1.30;;;0.90;;
48743;SDS011;34538;48.836;9.174;2023-04-24T06:50:22;1.70;;;0.98;;
48743;SDS011;34538;48.836;9.174;2023-04-24T06:52:50;0.98;;;0.80;;
48743;SDS011;34538;48.836;9.174;2023-04-24T06:55:17;1.73;;;1.10;;
48743;SDS011;34538;48.836;9.174;2023-04-24T06:57:44;1.58;;;1.02;;
48743;SDS011;34538;48.836;9.174;2023-04-24T07:00:11;1.38;;;1.10;;
48743;SDS011;34538;48.836;9.174;2023-04-24T07:02:40;1.20;;;1.10;;
48743;SDS011;34538;48.836;9.174;2023-04-24T07:05:07;2.15;;;1.13;;
48743;SDS011;34538;48.836;9.174;2023-04-24T07:07:34;2.50;;;1.15;;
48743;SDS011;34538;48.836;9.174;2023-04-24T07:10:04;3.15;;;2.05;;
48743;SDS011;34538;48.836;9.174;2023-04-24T07:12:32;1.48;;;1.02;;
48743;SDS011;34538;48.836;9.174;2023-04-24T07:15:00;2.35;;;1.40;;
48743;SDS011;34538;48.836;9.174;2023-04-24T07:17:27;2.55;;;1.30;;
48743;SDS011;34538;48.836;9.174;2023-04-24T07:19:54;1.60;;;1.17;;
48743;SDS011;34538;48.836;9.174;2023-04-24T07:22:21;2.50;;;1.60;;
48743;SDS011;34538;48.836;9.174;2023-04-24T07:24:48;4.32;;;1.50;;
48743;SDS011;34538;48.836;9.174;2023-04-24T07:27:16;3.53;;;1.60;;
48743;SDS011;34538;48.836;9.174;2023-04-24T07:29:43;2.13;;;1.33;;
48743;SDS011;34538;48.836;9.174;2023-04-24T07:32:10;2.63;;;1.10;;
48743;SDS011;34538;48.836;9.174;2023-04-24T07:34:37;2.65;;;1.00;;
48743;SDS011;34538;48.836;9.174;2023-04-24T07:37:03;1.35;;;1.10;;
48743;SDS011;34538;48.836;9.174;2023-04-24T07:39:31;3.88;;;1.15;;
48743;SDS011;34538;48.836;9.174;2023-04-24T07:41:58;2.00;;;0.93;;
48743;SDS011;34538;48.836;9.174;2023-04-24T07:44:27;2.42;;;1.00;;
48743;SDS011;34538;48.836;9.174;2023-04-24T07:46:54;1.73;;;1.02;;
48743;SDS011;34538;48.836;9.174;2023-04-24T07:49:22;1.67;;;1.05;;
48743;SDS011;34538;48.836;9.174;2023-04-24T07:51:49;1.65;;;0.90;;
48743;SDS011;34538;48.836;9.174;2023-04-24T07:54:16;2.08;;;0.90;;
48743;SDS011;34538;48.836;9.174;2023-04-24T07:56:43;2.75;;;0.88;;
48743;SDS011;34538;48.836;9.174;2023-04-24T07:59:10;1.52;;;1.15;;
48743;SDS011;34538;48.836;9.174;2023-04-24T08:01:38;1.45;;;0.90;;
48743;SDS011;34538;48.836;9.174;2023-04-24T08:04:05;1.67;;;0.90;;
48743;SDS011;34538;48.836;9.174;2023-04-24T08:06:32;3.55;;;1.10;;
48743;SDS011;34538;48.836;9.174;2023-04-24T08:08:59;2.85;;;0.82;;
48743;SDS011;34538;48.836;9.174;2023-04-24T08:11:26;2.65;;;0.80;;
48743;SDS011;34538;48.836;9.174;2023-04-24T08:13:53;6.63;;;1.27;;
48743;SDS011;34538;48.836;9.174;2023-04-24T08:16:20;2.90;;;0.93;;
48743;SDS011;34538;48.836;9.174;2023-04-24T08:18:50;1.27;;;0.82;;
48743;SDS011;34538;48.836;9.174;2023-04-24T08:21:17;1.42;;;0.93;;
48743;SDS011;34538;48.836;9.174;2023-04-24T08:23:45;1.98;;;0.80;;
48743;SDS011;34538;48.836;9.174;2023-04-24T08:26:12;1.95;;;0.80;;
48743;SDS011;34538;48.836;9.174;2023-04-24T08:28:39;1.52;;;0.90;;
48743;SDS011;34538;48.836;9.174;2023-04-24T08:31:06;3.10;;;1.15;;
48743;SDS011;34538;48.836;9.174;2023-04-24T08:33:33;2.58;;;1.20;;
48743;SDS011;34538;48.836;9.174;2023-04-24T08:36:03;1.83;;;1.02;;
48743;SDS011;34538;48.836;9.174;2023-04-24T08:38:31;4.38;;;1.42;;
48743;SDS011;34538;48.836;9.174;2023-04-24T08:40:59;2.00;;;1.20;;
48743;SDS011;34538;48.836;9.174;2023-04-24T08:43:27;1.30;;;1.00;;
48743;SDS011;34538;48.836;9.174;2023-04-24T08:45:55;2.50;;;1.15;;
48743;SDS011;34538;48.836;9.174;2023-04-24T08:48:23;1.67;;;0.93;;
48743;SDS011;34538;48.836;9.174;2023-04-24T08:50:50;2.42;;;1.13;;
48743;SDS011;34538;48.836;9.174;2023-04-24T08:53:18;2.28;;;0.90;;
48743;SDS011;34538;48.836;9.174;2023-04-24T08:55:46;3.03;;;0.93;;
48743;SDS011;34538;48.836;9.174;2023-04-24T08:58:14;1.58;;;1.23;;
48743;SDS011;34538;48.836;9.174;2023-04-24T09:00:43;2.03;;;0.85;;
48743;SDS011;34538;48.836;9.174;2023-04-24T09:03:12;1.90;;;1.00;;
48743;SDS011;34538;48.836;9.174;2023-04-24T09:05:41;1.83;;;0.85;;
48743;SDS011;34538;48.836;9.174;2023-04-24T09:08:10;0.70;;;0.70;;
48743;SDS011;34538;48.836;9.174;2023-04-24T09:10:41;1.45;;;1.10;;
48743;SDS011;34538;48.836;9.174;2023-04-24T09:13:07;1.88;;;0.70;;
48743;SDS011;34538;48.836;9.174;2023-04-24T09:15:35;2.78;;;1.17;;
48743;SDS011;34538;48.836;9.174;2023-04-24T09:18:03;2.58;;;0.80;;
48743;SDS011;34538;48.836;9.174;2023-04-24T09:20:30;1.17;;;0.80;;
48743;SDS011;34538;48.836;9.174;2023-04-24T09:22:58;1.63;;;0.80;;
48743;SDS011;34538;48.836;9.174;2023-04-24T09:25:25;1.13;;;0.75;;
48743;SDS011;34538;48.836;9.174;2023-04-24T09:28:01;1.48;;;0.98;;
48743;SDS011;34538;48.836;9.174;2023-04-24T09:30:29;1.17;;;0.93;;
48743;SDS011;34538;48.836;9.174;2023-04-24T09:35:50;2.95;;;0.80;;
48743;SDS011;34538;48.836;9.174;2023-04-24T09:38:17;2.47;;;1.10;;
48743;SDS011;34538;48.836;9.174;2023-04-24T09:40:44;4.40;;;0.90;;
48743;SDS011;34538;48.836;9.174;2023-04-24T09:43:12;1.48;;;0.93;;
48743;SDS011;34538;48.836;9.174;2023-04-24T09:45:40;2.08;;;1.00;;
48743;SDS011;34538;48.836;9.174;2023-04-24T09:48:08;1.48;;;0.70;;
48743;SDS011;34538;48.836;9.174;2023-04-24T09:50:36;2.38;;;0.90;;
48743;SDS011;34538;48.836;9.174;2023-04-24T09:53:03;1.88;;;0.70;;
48743;SDS011;34538;48.836;9.174;2023-04-24T09:55:33;0.68;;;0.63;;
48743;SDS011;34538;48.836;9.174;2023-04-24T09:58:07;1.88;;;0.90;;
48743;SDS011;34538;48.836;9.174;2023-04-24T10:00:35;1.08;;;0.70;;
48743;SDS011;34538;48.836;9.174;2023-04-24T10:03:03;2.33;;;0.70;;
48743;SDS011;34538;48.836;9.174;2023-04-24T10:05:31;2.78;;;0.88;;
48743;SDS011;34538;48.836;9.174;2023-04-24T10:08:03;1.10;;;0.77;;
48743;SDS011;34538;48.836;9.174;2023-04-24T10:12:57;1.83;;;0.70;;
48743;SDS011;34538;48.836;9.174;2023-04-24T10:15:25;1.55;;;0.65;;
48743;SDS011;34538;48.836;9.174;2023-04-24T10:17:54;1.75;;;1.10;;
48743;SDS011;34538;48.836;9.174;2023-04-24T10:20:23;3.75;;;0.93;;
48743;SDS011;34538;48.836;9.174;2023-04-24T10:22:50;0.93;;;0.50;;
48743;SDS011;34538;48.836;9.174;2023-04-24T10:25:19;1.00;;;0.80;;
48743;SDS011;34538;48.836;9.174;2023-04-24T10:27:47;1.98;;;1.00;;
48743;SDS011;34538;48.836;9.174;2023-04-24T10:30:15;2.65;;;0.80;;
48743;SDS011;34538;48.836;9.174;2023-04-24T10:32:43;2.80;;;0.82;;
48743;SDS011;34538;48.836;9.174;2023-04-24T10:35:13;1.02;;;0.80;;
48743;SDS011;34538;48.836;9.174;2023-04-24T10:37:41;3.85;;;1.10;;
48743;SDS011;34538;48.836;9.174;2023-04-24T10:40:12;1.17;;;1.00;;
48743;SDS011;34538;48.836;9.174;2023-04-24T10:42:46;1.10;;;0.90;;
48743;SDS011;34538;48.836;9.174;2023-04-24T10:45:17;2.17;;;1.05;;
48743;SDS011;34538;48.836;9.174;2023-04-24T10:47:53;2.42;;;1.05;;
48743;SDS011;34538;48.836;9.174;2023-04-24T10:50:26;2.10;;;0.90;;
48743;SDS011;34538;48.836;9.174;2023-04-24T10:52:54;1.42;;;1.08;;
48743;SDS011;34538;48.836;9.174;2023-04-24T10:55:41;1.35;;;0.88;;
48743;SDS011;34538;48.836;9.174;2023-04-24T10:58:10;1.02;;;0.80;;
48743;SDS011;34538;48.836;9.174;2023-04-24T11:00:38;1.50;;;0.90;;
48743;SDS011;34538;48.836;9.174;2023-04-24T11:03:06;1.00;;;0.80;;
48743;SDS011;34538;48.836;9.174;2023-04-24T11:05:58;2.58;;;0.77;;
48743;SDS011;34538;48.836;9.174;2023-04-24T11:08:26;1.65;;;0.80;;
48743;SDS011;34538;48.836;9.174;2023-04-24T11:10:55;0.73;;;0.63;;
48743;SDS011;34538;48.836;9.174;2023-04-24T11:13:29;2.25;;;0.90;;
48743;SDS011;34538;48.836;9.174;2023-04-24T11:16:32;0.93;;;0.77;;
48743;SDS011;34538;48.836;9.174;2023-04-24T11:19:02;2.15;;;0.70;;
48743;SDS011;34538;48.836;9.174;2023-04-24T11:21:41;1.73;;;0.93;;
48743;SDS011;34538;48.836;9.174;2023-04-24T11:27:11;1.00;;;0.90;;
48743;SDS011;34538;48.836;9.174;2023-04-24T11:29:43;1.98;;;1.10;;
48743;SDS011;34538;48.836;9.174;2023-04-24T11:32:24;1.33;;;0.95;;
48743;SDS011;34538;48.836;9.174;2023-04-24T11:34:53;1.67;;;1.25;;
48743;SDS011;34538;48.836;9.174;2023-04-24T11:37:23;1.65;;;1.00;;
48743;SDS011;34538;48.836;9.174;2023-04-24T11:39:52;1.38;;;0.90;;
48743;SDS011;34538;48.836;9.174;2023-04-24T11:42:20;2.83;;;1.00;;
48743;SDS011;34538;48.836;9.174;2023-04-24T11:44:49;3.10;;;1.10;;
48743;SDS011;34538;48.836;9.174;2023-04-24T11:47:16;1.15;;;0.80;;
48743;SDS011;34538;48.836;9.174;2023-04-24T11:49:42;1.38;;;0.70;;
48743;SDS011;34538;48.836;9.174;2023-04-24T11:52:09;1.20;;;0.80;;
48743;SDS011;34538;48.836;9.174;2023-04-24T11:54:38;2.00;;;0.77;;
48743;SDS011;34538;48.836;9.174;2023-04-24T11:57:13;4.00;;;1.30;;
48743;SDS011;34538;48.836;9.174;2023-04-24T11:59:40;1.80;;;0.80;;
48743;SDS011;34538;48.836;9.174;2023-04-24T12:02:07;1.00;;;0.80;;
48743;SDS011;34538;48.836;9.174;2023-04-24T12:04:43;1.60;;;0.73;;
48743;SDS011;34538;48.836;9.174;2023-04-24T12:07:10;2.08;;;0.60;;
48743;SDS011;34538;48.836;9.174;2023-04-24T12:09:41;1.23;;;0.80;;
48743;SDS011;34538;48.836;9.174;2023-04-24T12:12:10;1.10;;;0.70;;
48743;SDS011;34538;48.836;9.174;2023-04-24T12:14:44;2.97;;;1.00;;
48743;SDS011;34538;48.836;9.174;2023-04-24T12:17:13;1.50;;;0.80;;
48743;SDS011;34538;48.836;9.174;2023-04-24T12:19:44;2.67;;;1.00;;
48743;SDS011;34538;48.836;9.174;2023-04-24T12:22:12;1.58;;;1.00;;
48743;SDS011;34538;48.836;9.174;2023-04-24T12:24:57;4.05;;;1.70;;
48743;SDS011;34538;48.836;9.174;2023-04-24T12:27:25;1.20;;;0.95;;
48743;SDS011;34538;48.836;9.174;2023-04-24T12:29:53;3.97;;;1.05;;
48743;SDS011;34538;48.836;9.174;2023-04-24T12:32:21;2.85;;;1.00;;
48743;SDS011;34538;48.836;9.174;2023-04-24T12:34:49;2.55;;;1.13;;
48743;SDS011;34538;48.836;9.174;2023-04-24T12:37:16;1.92;;;1.00;;
48743;SDS011;34538;48.836;9.174;2023-04-24T12:42:31;2.65;;;0.90;;
48743;SDS011;34538;48.836;9.174;2023-04-24T12:44:58;1.65;;;0.75;;
48743;SDS011;34538;48.836;9.174;2023-04-24T12:47:26;5.88;;;0.90;;
48743;SDS011;34538;48.836;9.174;2023-04-24T12:49:54;1.45;;;0.88;;
48743;SDS011;34538;48.836;9.174;2023-04-24T12:52:21;2.75;;;1.13;;
48743;SDS011;34538;48.836;9.174;2023-04-24T12:54:48;2.28;;;1.20;;
48743;SDS011;34538;48.836;9.174;2023-04-24T12:57:17;2.53;;;0.90;;
48743;SDS011;34538;48.836;9.174;2023-04-24T12:59:44;1.42;;;0.90;;
48743;SDS011;34538;48.836;9.174;2023-04-24T13:02:11;2.60;;;1.00;;
48743;SDS011;34538;48.836;9.174;2023-04-24T13:04:38;1.40;;;1.20;;
48743;SDS011;34538;48.836;9.174;2023-04-24T13:07:05;1.60;;;0.80;;
48743;SDS011;34538;48.836;9.174;2023-04-24T13:09:33;0.75;;;0.50;;
48743;SDS011;34538;48.836;9.174;2023-04-24T13:12:00;1.15;;;0.70;;
48743;SDS011;34538;48.836;9.174;2023-04-24T13:14:29;0.90;;;0.80;;
48743;SDS011;34538;48.836;9.174;2023-04-24T13:16:55;1.02;;;0.73;;
48743;SDS011;34538;48.836;9.174;2023-04-24T13:19:23;2.42;;;1.10;;
48743;SDS011;34538;48.836;9.174;2023-04-24T13:21:51;2.20;;;1.00;;
48743;SDS011;34538;48.836;9.174;2023-04-24T13:24:18;2.42;;;1.20;;
48743;SDS011;34538;48.836;9.174;2023-04-24T13:26:45;2.20;;;1.42;;
48743;SDS011;34538;48.836;9.174;2023-04-24T13:29:12;1.60;;;1.08;;
48743;SDS011;34538;48.836;9.174;2023-04-24T13:31:40;4.60;;;1.30;;
48743;SDS011;34538;48.836;9.174;2023-04-24T13:34:07;2.80;;;1.00;;
48743;SDS011;34538;48.836;9.174;2023-04-24T13:36:34;2.88;;;1.38;;
48743;SDS011;34538;48.836;9.174;2023-04-24T13:39:01;1.65;;;1.00;;
48743;SDS011;34538;48.836;9.174;2023-04-24T13:41:29;1.77;;;1.25;;
48743;SDS011;34538;48.836;9.174;2023-04-24T13:43:56;2.00;;;1.25;;
48743;SDS011;34538;48.836;9.174;2023-04-24T13:46:22;2.38;;;1.58;;
48743;SDS011;34538;48.836;9.174;2023-04-24T13:48:51;1.38;;;1.15;;
48743;SDS011;34538;48.836;9.174;2023-04-24T13:51:18;1.90;;;1.00;;
48743;SDS011;34538;48.836;9.174;2023-04-24T13:53:44;3.55;;;1.05;;
48743;SDS011;34538;48.836;9.174;2023-04-24T13:56:11;4.68;;;1.00;;
48743;SDS011;34538;48.836;9.174;2023-04-24T13:58:39;1.67;;;1.00;;
48743;SDS011;34538;48.836;9.174;2023-04-24T14:01:06;1.25;;;0.80;;
48743;SDS011;34538;48.836;9.174;2023-04-24T14:03:33;1.05;;;0.93;;
48743;SDS011;34538;48.836;9.174;2023-04-24T14:06:01;1.48;;;0.98;;
48743;SDS011;34538;48.836;9.174;2023-04-24T14:08:28;2.28;;;1.30;;
48743;SDS011;34538;48.836;9.174;2023-04-24T14:10:55;1.42;;;0.98;;
48743;SDS011;34538;48.836;9.174;2023-04-24T14:13:21;2.03;;;1.00;;
48743;SDS011;34538;48.836;9.174;2023-04-24T14:15:49;1.70;;;0.80;;
48743;SDS011;34538;48.836;9.174;2023-04-24T14:18:17;2.33;;;0.90;;
48743;SDS011;34538;48.836;9.174;2023-04-24T14:20:45;1.20;;;0.80;;
48743;SDS011;34538;48.836;9.174;2023-04-24T14:23:13;1.35;;;0.93;;
48743;SDS011;34538;48.836;9.174;2023-04-24T14:25:40;1.52;;;1.00;;
48743;SDS011;34538;48.836;9.174;2023-04-24T14:28:06;1.42;;;1.00;;
48743;SDS011;34538;48.836;9.174;2023-04-24T14:30:33;1.80;;;1.30;;
48743;SDS011;34538;48.836;9.174;2023-04-24T14:33:02;4.13;;;1.00;;
48743;SDS011;34538;48.836;9.174;2023-04-24T14:35:29;2.45;;;1.10;;
48743;SDS011;34538;48.836;9.174;2023-04-24T14:37:59;1.20;;;0.88;;
48743;SDS011;34538;48.836;9.174;2023-04-24T14:40:27;2.47;;;0.90;;
48743;SDS011;34538;48.836;9.174;2023-04-24T14:42:54;1.13;;;0.98;;
48743;SDS011;34538;48.836;9.174;2023-04-24T14:45:22;1.73;;;0.95;;
48743;SDS011;34538;48.836;9.174;2023-04-24T14:47:49;1.20;;;1.10;;
48743;SDS011;34538;48.836;9.174;2023-04-24T14:50:15;3.33;;;1.10;;
48743;SDS011;34538;48.836;9.174;2023-04-24T14:52:42;1.27;;;0.95;;
48743;SDS011;34538;48.836;9.174;2023-04-24T14:55:09;2.42;;;1.05;;
48743;SDS011;34538;48.836;9.174;2023-04-24T14:57:38;2.42;;;1.20;;
48743;SDS011;34538;48.836;9.174;2023-04-24T15:00:05;1.83;;;1.00;;
48743;SDS011;34538;48.836;9.174;2023-04-24T15:02:34;1.95;;;1.25;;
48743;SDS011;34538;48.836;9.174;2023-04-24T15:05:05;1.17;;;0.98;;
48743;SDS011;34538;48.836;9.174;2023-04-24T15:07:32;3.90;;;1.27;;